Wetterstation Vordersexau
Wetterdaten: April 2015
Datum Temp. A. Feuchte A. Luftdruck Regen Wind Richtung Taupunkt Windchill Windben
01.04.2015 7,1 C 67 % 1020,2 hPa 3,7 l/m 7,8 km/h W-NW 1,2 C 4,8 C 4,3 km/h
02.04.2015 5,5 C 80 % 1017,6 hPa 7,9 l/m 16,0 km/h W 2,2 C -0,3 C 8,9 km/h
03.04.2015 7,0 C 73 % 1018,1 hPa 0,8 l/m 1,8 km/h S 2,1 C 6,7 C 1,0 km/h
04.04.2015 5,8 C 85 % 1011,4 hPa 10,8 l/m 0,1 km/h SO 3,5 C 5,8 C 0,0 km/h
05.04.2015 7,0 C 63 % 1017,9 hPa 0,0 l/m 0,4 km/h N-NO -0,3 C 7,0 C 0,2 km/h
06.04.2015 5,4 C 62 % 1024,9 hPa 0,0 l/m 0,3 km/h N-NO -1,9 C 5,3 C 0,2 km/h
07.04.2015 8,4 C 59 % 1031,5 hPa 0,0 l/m 1,3 km/h SO -0,6 C 8,2 C 0,7 km/h
08.04.2015 10,7 C 57 % 1029,0 hPa 0,0 l/m 2,2 km/h O-SO 1,4 C 10,5 C 1,2 km/h
09.04.2015 14,0 C 56 % 1024,2 hPa 0,0 l/m 1,6 km/h NO 3,8 C 13,7 C 0,9 km/h
10.04.2015 15,5 C 53 % 1019,6 hPa 0,0 l/m 1,2 km/h SO 4,2 C 15,4 C 0,6 km/h
11.04.2015 13,0 C 61 % 1022,1 hPa 0,8 l/m 6,1 km/h S-SW 5,2 C 11,4 C 3,4 km/h
12.04.2015 15,9 C 62 % 1026,5 hPa 0,0 l/m 0,7 km/h O-SO 7,5 C 15,8 C 0,4 km/h
13.04.2015 14,2 C 63 % 1027,3 hPa 0,0 l/m 0,8 km/h O-SO 6,2 C 14,2 C 0,5 km/h
14.04.2015 16,2 C 58 % 1026,5 hPa 0,0 l/m 2,3 km/h O-SO 6,2 C 16,0 C 1,3 km/h
15.04.2015 18,1 C 51 % 1017,5 hPa 0,0 l/m 1,2 km/h O-NO 5,7 C 18,1 C 0,6 km/h
16.04.2015 16,0 C 56 % 1012,3 hPa 0,0 l/m 4,3 km/h SO 6,6 C 15,5 C 2,4 km/h
17.04.2015 12,4 C 82 % 1011,8 hPa 16,6 l/m 3,8 km/h O-SO 9,3 C 11,9 C 2,1 km/h
18.04.2015 11,4 C 60 % 1018,4 hPa 0,0 l/m 2,2 km/h O-NO 2,7 C 10,9 C 1,2 km/h
19.04.2015 12,7 C 51 % 1015,4 hPa 0,0 l/m 1,2 km/h SO 0,9 C 12,5 C 0,7 km/h
20.04.2015 12,8 C 53 % 1020,5 hPa 0,0 l/m 2,3 km/h N-NO 2,3 C 12,5 C 1,3 km/h
21.04.2015 15,7 C 52 % 1024,2 hPa 0,0 l/m 0,7 km/h N-NO 4,2 C 15,6 C 0,4 km/h
22.04.2015 15,4 C 51 % 1021,0 hPa 0,0 l/m 2,3 km/h NO 3,7 C 15,0 C 1,3 km/h
23.04.2015 12,7 C 55 % 1015,0 hPa 0,0 l/m 1,5 km/h O-NO 2,7 C 12,5 C 0,8 km/h
24.04.2015 15,2 C 52 % 1012,2 hPa 0,0 l/m 1,9 km/h O-NO 3,9 C 15,0 C 1,0 km/h
25.04.2015 12,8 C 74 % 1009,5 hPa 2,9 l/m 2,5 km/h SO 8,3 C 12,5 C 1,4 km/h
26.04.2015 16,5 C 69 % 1005,9 hPa 0,0 l/m 2,9 km/h N-NO 10,5 C 16,1 C 1,6 km/h
27.04.2015 15,6 C 75 % 1000,0 hPa 5,4 l/m 2,4 km/h N-NO 10,9 C 15,1 C 1,3 km/h
28.04.2015 9,4 C 76 % 1013,6 hPa 4,6 l/m 0,5 km/h N-NO 5,4 C 9,4 C 0,3 km/h
29.04.2015 11,8 C 66 % 1015,6 hPa 0,0 l/m 0,8 km/h SO 4,9 C 11,8 C 0,5 km/h
30.04.2015 11,7 C 68 % 1013,8 hPa 2,9 l/m 7,3 km/h SO 5,5 C 10,1 C 4,1 km/h
Min-Datum 06.04.15 10.04.15 27.04.15 10 Tage 01.04.15 - 06.04.15 02.04.15 01.04.15
Min-Zeit 06:51 16:51 16:51 - 05:51 - 06:51 07:51 05:51
Minimum -3,6 C 19 % 997,6 hPa - 0,0 km/h - -6,1 C -7,9 C 0,0 km/h
Max-Datum 15.04.15 02.04.15 07.04.15 17.04.15 02.04.15 - 27.04.15 15.04.15 02.04.15
Max-Zeit 15:51 19:51 09:51 18:51 07:51 - 15:51 15:51 07:51
Maximum 34,8 C 86 % 1033,5 hPa 16,6 l/m 41,5 km/h
W
- 15,3 C 34,8 C 23,0 km/h
W
Durchschnitt 12,2 C 63 % 1018,1 hPa #56,4 l/m 2,7 km/h SO 4,3 C 11,6 C 1,5 km/h

Durchschnitt Minimum Temp.3,6 C
Durchschnitt Maximum Temp.22,9 C
www.sexauwetter.de